sensor_id;sensor_type;location;lat;lon;timestamp;P1;durP1;ratioP1;P2;durP2;ratioP2
25637;SDS011;13496;51.040;13.680;2024-02-04T00:02:59;0.60;;;0.60;;
25637;SDS011;13496;51.040;13.680;2024-02-04T00:08:01;0.83;;;0.83;;
25637;SDS011;13496;51.040;13.680;2024-02-04T00:13:03;0.90;;;0.90;;
25637;SDS011;13496;51.040;13.680;2024-02-04T00:18:05;1.70;;;0.70;;
25637;SDS011;13496;51.040;13.680;2024-02-04T00:23:07;0.63;;;0.63;;
25637;SDS011;13496;51.040;13.680;2024-02-04T00:28:09;0.53;;;0.53;;
25637;SDS011;13496;51.040;13.680;2024-02-04T00:33:14;0.60;;;0.60;;
25637;SDS011;13496;51.040;13.680;2024-02-04T00:38:15;0.70;;;0.70;;
25637;SDS011;13496;51.040;13.680;2024-02-04T00:43:18;1.48;;;0.80;;
25637;SDS011;13496;51.040;13.680;2024-02-04T00:48:20;0.70;;;0.70;;
25637;SDS011;13496;51.040;13.680;2024-02-04T00:53:22;0.60;;;0.60;;
25637;SDS011;13496;51.040;13.680;2024-02-04T00:58:23;0.65;;;0.63;;
25637;SDS011;13496;51.040;13.680;2024-02-04T01:03:25;0.80;;;0.60;;
25637;SDS011;13496;51.040;13.680;2024-02-04T01:08:27;0.70;;;0.70;;
25637;SDS011;13496;51.040;13.680;2024-02-04T01:13:29;0.60;;;0.60;;
25637;SDS011;13496;51.040;13.680;2024-02-04T01:18:31;0.77;;;0.68;;
25637;SDS011;13496;51.040;13.680;2024-02-04T01:23:33;0.83;;;0.83;;
25637;SDS011;13496;51.040;13.680;2024-02-04T01:28:35;0.67;;;0.67;;
25637;SDS011;13496;51.040;13.680;2024-02-04T01:33:37;0.82;;;0.77;;
25637;SDS011;13496;51.040;13.680;2024-02-04T01:38:39;0.70;;;0.70;;
25637;SDS011;13496;51.040;13.680;2024-02-04T01:43:40;0.60;;;0.60;;
25637;SDS011;13496;51.040;13.680;2024-02-04T01:48:42;0.55;;;0.55;;
25637;SDS011;13496;51.040;13.680;2024-02-04T01:53:46;0.60;;;0.60;;
25637;SDS011;13496;51.040;13.680;2024-02-04T01:58:49;0.50;;;0.50;;
25637;SDS011;13496;51.040;13.680;2024-02-04T02:03:51;0.63;;;0.63;;
25637;SDS011;13496;51.040;13.680;2024-02-04T02:08:53;0.60;;;0.60;;
25637;SDS011;13496;51.040;13.680;2024-02-04T02:14:00;0.50;;;0.50;;
25637;SDS011;13496;51.040;13.680;2024-02-04T02:29:43;0.87;;;0.77;;
25637;SDS011;13496;51.040;13.680;2024-02-04T02:34:45;0.40;;;0.40;;
25637;SDS011;13496;51.040;13.680;2024-02-04T02:39:56;0.50;;;0.50;;
25637;SDS011;13496;51.040;13.680;2024-02-04T02:45:03;0.68;;;0.68;;
25637;SDS011;13496;51.040;13.680;2024-02-04T02:50:05;0.50;;;0.50;;
25637;SDS011;13496;51.040;13.680;2024-02-04T02:55:08;0.57;;;0.57;;
25637;SDS011;13496;51.040;13.680;2024-02-04T03:00:10;0.70;;;0.70;;
25637;SDS011;13496;51.040;13.680;2024-02-04T03:05:13;0.60;;;0.60;;
25637;SDS011;13496;51.040;13.680;2024-02-04T03:10:16;0.80;;;0.80;;
25637;SDS011;13496;51.040;13.680;2024-02-04T03:15:18;0.70;;;0.70;;
25637;SDS011;13496;51.040;13.680;2024-02-04T03:20:20;0.75;;;0.75;;
25637;SDS011;13496;51.040;13.680;2024-02-04T03:25:22;0.80;;;0.60;;
25637;SDS011;13496;51.040;13.680;2024-02-04T03:30:28;0.63;;;0.63;;
25637;SDS011;13496;51.040;13.680;2024-02-04T03:35:30;0.82;;;0.82;;
25637;SDS011;13496;51.040;13.680;2024-02-04T03:40:32;0.68;;;0.68;;
25637;SDS011;13496;51.040;13.680;2024-02-04T03:45:35;0.60;;;0.60;;
25637;SDS011;13496;51.040;13.680;2024-02-04T03:50:37;1.38;;;0.63;;
25637;SDS011;13496;51.040;13.680;2024-02-04T03:55:39;0.70;;;0.70;;
25637;SDS011;13496;51.040;13.680;2024-02-04T04:00:40;0.60;;;0.60;;
25637;SDS011;13496;51.040;13.680;2024-02-04T04:05:42;0.60;;;0.60;;
25637;SDS011;13496;51.040;13.680;2024-02-04T04:10:44;0.70;;;0.70;;
25637;SDS011;13496;51.040;13.680;2024-02-04T04:15:46;0.55;;;0.55;;
25637;SDS011;13496;51.040;13.680;2024-02-04T04:20:48;0.70;;;0.52;;
25637;SDS011;13496;51.040;13.680;2024-02-04T04:25:50;0.63;;;0.60;;
25637;SDS011;13496;51.040;13.680;2024-02-04T04:30:52;0.60;;;0.60;;
25637;SDS011;13496;51.040;13.680;2024-02-04T04:35:53;0.60;;;0.60;;
25637;SDS011;13496;51.040;13.680;2024-02-04T04:40:55;0.60;;;0.60;;
25637;SDS011;13496;51.040;13.680;2024-02-04T04:45:57;0.53;;;0.53;;
25637;SDS011;13496;51.040;13.680;2024-02-04T04:50:59;0.50;;;0.50;;
25637;SDS011;13496;51.040;13.680;2024-02-04T04:56:01;0.80;;;0.80;;
25637;SDS011;13496;51.040;13.680;2024-02-04T05:01:04;0.40;;;0.40;;
25637;SDS011;13496;51.040;13.680;2024-02-04T05:06:06;0.40;;;0.40;;
25637;SDS011;13496;51.040;13.680;2024-02-04T05:11:08;0.52;;;0.52;;
25637;SDS011;13496;51.040;13.680;2024-02-04T05:16:10;0.68;;;0.68;;
25637;SDS011;13496;51.040;13.680;2024-02-04T05:21:12;0.50;;;0.50;;
25637;SDS011;13496;51.040;13.680;2024-02-04T05:26:14;0.65;;;0.65;;
25637;SDS011;13496;51.040;13.680;2024-02-04T05:31:20;0.70;;;0.70;;
25637;SDS011;13496;51.040;13.680;2024-02-04T05:36:21;0.60;;;0.60;;
25637;SDS011;13496;51.040;13.680;2024-02-04T05:41:23;0.50;;;0.50;;
25637;SDS011;13496;51.040;13.680;2024-02-04T05:46:25;0.60;;;0.60;;
25637;SDS011;13496;51.040;13.680;2024-02-04T05:51:30;0.60;;;0.60;;
25637;SDS011;13496;51.040;13.680;2024-02-04T05:56:39;0.63;;;0.63;;
25637;SDS011;13496;51.040;13.680;2024-02-04T06:01:41;0.60;;;0.60;;
25637;SDS011;13496;51.040;13.680;2024-02-04T06:06:43;0.70;;;0.70;;
25637;SDS011;13496;51.040;13.680;2024-02-04T06:11:45;0.40;;;0.40;;
25637;SDS011;13496;51.040;13.680;2024-02-04T06:16:48;0.70;;;0.70;;
25637;SDS011;13496;51.040;13.680;2024-02-04T06:21:49;0.70;;;0.70;;
25637;SDS011;13496;51.040;13.680;2024-02-04T06:26:51;0.60;;;0.60;;
25637;SDS011;13496;51.040;13.680;2024-02-04T06:31:53;0.60;;;0.60;;
25637;SDS011;13496;51.040;13.680;2024-02-04T06:36:55;3.65;;;0.57;;
25637;SDS011;13496;51.040;13.680;2024-02-04T06:41:56;0.60;;;0.60;;
25637;SDS011;13496;51.040;13.680;2024-02-04T06:46:58;1.20;;;0.60;;
25637;SDS011;13496;51.040;13.680;2024-02-04T06:52:00;0.60;;;0.60;;
25637;SDS011;13496;51.040;13.680;2024-02-04T06:57:02;0.65;;;0.65;;
25637;SDS011;13496;51.040;13.680;2024-02-04T07:02:04;0.57;;;0.57;;
25637;SDS011;13496;51.040;13.680;2024-02-04T07:07:05;0.50;;;0.50;;
25637;SDS011;13496;51.040;13.680;2024-02-04T07:12:07;2.47;;;0.60;;
25637;SDS011;13496;51.040;13.680;2024-02-04T07:17:09;1.27;;;0.70;;
25637;SDS011;13496;51.040;13.680;2024-02-04T07:22:13;0.70;;;0.70;;
25637;SDS011;13496;51.040;13.680;2024-02-04T07:27:14;0.53;;;0.53;;
25637;SDS011;13496;51.040;13.680;2024-02-04T07:32:16;1.17;;;0.60;;
25637;SDS011;13496;51.040;13.680;2024-02-04T07:37:18;0.80;;;0.80;;
25637;SDS011;13496;51.040;13.680;2024-02-04T07:42:20;1.73;;;0.80;;
25637;SDS011;13496;51.040;13.680;2024-02-04T07:47:22;1.60;;;0.80;;
25637;SDS011;13496;51.040;13.680;2024-02-04T07:52:24;1.02;;;0.80;;
25637;SDS011;13496;51.040;13.680;2024-02-04T07:57:26;0.75;;;0.70;;
25637;SDS011;13496;51.040;13.680;2024-02-04T08:02:28;0.77;;;0.65;;
25637;SDS011;13496;51.040;13.680;2024-02-04T08:07:29;1.13;;;0.80;;
25637;SDS011;13496;51.040;13.680;2024-02-04T08:12:32;1.75;;;0.65;;
25637;SDS011;13496;51.040;13.680;2024-02-04T08:17:33;1.00;;;0.60;;
25637;SDS011;13496;51.040;13.680;2024-02-04T08:22:35;2.90;;;0.70;;
25637;SDS011;13496;51.040;13.680;2024-02-04T08:27:38;0.73;;;0.65;;
25637;SDS011;13496;51.040;13.680;2024-02-04T08:32:40;0.73;;;0.70;;
25637;SDS011;13496;51.040;13.680;2024-02-04T08:37:42;0.98;;;0.63;;
25637;SDS011;13496;51.040;13.680;2024-02-04T08:42:44;4.63;;;1.00;;
25637;SDS011;13496;51.040;13.680;2024-02-04T08:47:46;4.05;;;1.00;;
25637;SDS011;13496;51.040;13.680;2024-02-04T08:52:47;1.17;;;0.80;;
25637;SDS011;13496;51.040;13.680;2024-02-04T08:57:49;1.67;;;0.50;;
25637;SDS011;13496;51.040;13.680;2024-02-04T09:02:51;3.80;;;1.00;;
25637;SDS011;13496;51.040;13.680;2024-02-04T09:07:53;1.17;;;0.80;;
25637;SDS011;13496;51.040;13.680;2024-02-04T09:12:56;1.40;;;0.63;;
25637;SDS011;13496;51.040;13.680;2024-02-04T09:17:58;1.27;;;0.88;;
25637;SDS011;13496;51.040;13.680;2024-02-04T09:23:00;2.42;;;0.85;;
25637;SDS011;13496;51.040;13.680;2024-02-04T09:28:02;1.20;;;0.60;;
25637;SDS011;13496;51.040;13.680;2024-02-04T09:33:04;1.07;;;0.73;;
25637;SDS011;13496;51.040;13.680;2024-02-04T09:38:06;1.30;;;0.83;;
25637;SDS011;13496;51.040;13.680;2024-02-04T09:43:08;1.23;;;0.85;;
25637;SDS011;13496;51.040;13.680;2024-02-04T09:48:11;3.80;;;0.70;;
25637;SDS011;13496;51.040;13.680;2024-02-04T09:53:14;1.10;;;0.70;;
25637;SDS011;13496;51.040;13.680;2024-02-04T09:58:20;1.33;;;0.83;;
25637;SDS011;13496;51.040;13.680;2024-02-04T10:03:22;1.63;;;0.90;;
25637;SDS011;13496;51.040;13.680;2024-02-04T10:08:24;1.13;;;0.90;;
25637;SDS011;13496;51.040;13.680;2024-02-04T10:13:26;1.95;;;1.00;;
25637;SDS011;13496;51.040;13.680;2024-02-04T10:18:28;3.08;;;0.88;;
25637;SDS011;13496;51.040;13.680;2024-02-04T10:23:30;2.05;;;0.70;;
25637;SDS011;13496;51.040;13.680;2024-02-04T10:28:32;1.37;;;0.83;;
25637;SDS011;13496;51.040;13.680;2024-02-04T10:33:34;1.90;;;0.90;;
25637;SDS011;13496;51.040;13.680;2024-02-04T10:38:36;1.30;;;0.80;;
25637;SDS011;13496;51.040;13.680;2024-02-04T10:43:38;3.57;;;1.00;;
25637;SDS011;13496;51.040;13.680;2024-02-04T10:48:42;3.92;;;1.38;;
25637;SDS011;13496;51.040;13.680;2024-02-04T10:53:47;3.50;;;1.70;;
25637;SDS011;13496;51.040;13.680;2024-02-04T10:58:50;2.93;;;1.63;;
25637;SDS011;13496;51.040;13.680;2024-02-04T11:03:54;4.00;;;1.63;;
25637;SDS011;13496;51.040;13.680;2024-02-04T11:08:56;2.03;;;1.53;;
25637;SDS011;13496;51.040;13.680;2024-02-04T11:14:01;4.50;;;2.10;;
25637;SDS011;13496;51.040;13.680;2024-02-04T11:30:10;4.60;;;2.25;;
25637;SDS011;13496;51.040;13.680;2024-02-04T11:35:12;4.30;;;2.10;;
25637;SDS011;13496;51.040;13.680;2024-02-04T11:40:14;6.25;;;2.47;;
25637;SDS011;13496;51.040;13.680;2024-02-04T11:45:20;4.40;;;2.60;;
25637;SDS011;13496;51.040;13.680;2024-02-04T11:50:27;6.20;;;2.17;;
25637;SDS011;13496;51.040;13.680;2024-02-04T11:55:31;3.58;;;2.20;;
25637;SDS011;13496;51.040;13.680;2024-02-04T12:00:33;3.07;;;2.07;;
25637;SDS011;13496;51.040;13.680;2024-02-04T12:05:36;4.30;;;2.22;;
25637;SDS011;13496;51.040;13.680;2024-02-04T12:10:38;5.82;;;2.28;;
25637;SDS011;13496;51.040;13.680;2024-02-04T12:15:41;4.53;;;2.38;;
25637;SDS011;13496;51.040;13.680;2024-02-04T12:20:44;4.10;;;2.22;;
25637;SDS011;13496;51.040;13.680;2024-02-04T12:25:45;6.10;;;2.50;;
25637;SDS011;13496;51.040;13.680;2024-02-04T12:30:54;5.13;;;2.30;;
25637;SDS011;13496;51.040;13.680;2024-02-04T12:35:56;3.55;;;2.20;;
25637;SDS011;13496;51.040;13.680;2024-02-04T12:41:03;3.63;;;2.10;;
25637;SDS011;13496;51.040;13.680;2024-02-04T12:46:05;3.58;;;2.25;;
25637;SDS011;13496;51.040;13.680;2024-02-04T12:51:09;3.35;;;1.83;;
25637;SDS011;13496;51.040;13.680;2024-02-04T12:56:12;5.03;;;2.33;;
25637;SDS011;13496;51.040;13.680;2024-02-04T13:01:14;3.75;;;2.00;;
25637;SDS011;13496;51.040;13.680;2024-02-04T13:06:16;3.53;;;1.98;;
25637;SDS011;13496;51.040;13.680;2024-02-04T13:11:21;4.30;;;2.33;;
25637;SDS011;13496;51.040;13.680;2024-02-04T13:16:23;3.35;;;2.20;;
25637;SDS011;13496;51.040;13.680;2024-02-04T13:21:26;3.35;;;1.90;;
25637;SDS011;13496;51.040;13.680;2024-02-04T13:26:29;4.43;;;1.90;;
25637;SDS011;13496;51.040;13.680;2024-02-04T13:31:31;2.50;;;1.77;;
25637;SDS011;13496;51.040;13.680;2024-02-04T13:36:33;4.30;;;2.22;;
25637;SDS011;13496;51.040;13.680;2024-02-04T13:41:35;3.72;;;2.15;;
25637;SDS011;13496;51.040;13.680;2024-02-04T13:46:37;2.67;;;1.98;;
25637;SDS011;13496;51.040;13.680;2024-02-04T13:51:43;4.88;;;2.40;;
25637;SDS011;13496;51.040;13.680;2024-02-04T13:56:45;5.38;;;2.80;;
25637;SDS011;13496;51.040;13.680;2024-02-04T14:01:47;5.78;;;2.75;;
25637;SDS011;13496;51.040;13.680;2024-02-04T14:06:49;5.32;;;2.95;;
25637;SDS011;13496;51.040;13.680;2024-02-04T14:11:51;6.63;;;3.15;;
25637;SDS011;13496;51.040;13.680;2024-02-04T14:16:53;6.57;;;2.63;;
25637;SDS011;13496;51.040;13.680;2024-02-04T14:21:55;5.40;;;2.88;;
25637;SDS011;13496;51.040;13.680;2024-02-04T14:26:57;4.97;;;2.70;;
25637;SDS011;13496;51.040;13.680;2024-02-04T14:32:00;3.90;;;3.03;;
25637;SDS011;13496;51.040;13.680;2024-02-04T14:37:01;6.22;;;2.95;;
25637;SDS011;13496;51.040;13.680;2024-02-04T14:42:03;7.07;;;3.25;;
25637;SDS011;13496;51.040;13.680;2024-02-04T14:47:05;5.65;;;3.40;;
25637;SDS011;13496;51.040;13.680;2024-02-04T14:52:07;7.45;;;3.30;;
25637;SDS011;13496;51.040;13.680;2024-02-04T14:57:09;5.10;;;3.03;;
25637;SDS011;13496;51.040;13.680;2024-02-04T15:02:11;4.70;;;3.55;;
25637;SDS011;13496;51.040;13.680;2024-02-04T15:07:12;4.73;;;2.70;;
25637;SDS011;13496;51.040;13.680;2024-02-04T15:12:14;4.22;;;2.63;;
25637;SDS011;13496;51.040;13.680;2024-02-04T15:17:16;6.57;;;2.70;;
25637;SDS011;13496;51.040;13.680;2024-02-04T15:22:18;5.53;;;3.15;;
25637;SDS011;13496;51.040;13.680;2024-02-04T15:27:20;7.10;;;3.40;;
25637;SDS011;13496;51.040;13.680;2024-02-04T15:32:22;6.15;;;3.08;;
25637;SDS011;13496;51.040;13.680;2024-02-04T15:37:24;6.03;;;3.58;;
25637;SDS011;13496;51.040;13.680;2024-02-04T15:42:26;4.43;;;2.97;;
25637;SDS011;13496;51.040;13.680;2024-02-04T15:47:29;5.90;;;2.77;;
25637;SDS011;13496;51.040;13.680;2024-02-04T15:52:33;6.17;;;3.30;;
25637;SDS011;13496;51.040;13.680;2024-02-04T15:57:35;6.07;;;3.10;;
25637;SDS011;13496;51.040;13.680;2024-02-04T16:02:40;4.60;;;2.60;;
25637;SDS011;13496;51.040;13.680;2024-02-04T16:07:45;3.47;;;2.42;;
25637;SDS011;13496;51.040;13.680;2024-02-04T16:17:55;4.35;;;2.92;;
25637;SDS011;13496;51.040;13.680;2024-02-04T16:22:57;5.87;;;3.20;;
25637;SDS011;13496;51.040;13.680;2024-02-04T16:27:59;4.72;;;2.85;;
25637;SDS011;13496;51.040;13.680;2024-02-04T16:33:00;3.58;;;2.47;;
25637;SDS011;13496;51.040;13.680;2024-02-04T16:38:03;4.43;;;2.55;;
25637;SDS011;13496;51.040;13.680;2024-02-04T16:43:05;4.30;;;2.60;;
25637;SDS011;13496;51.040;13.680;2024-02-04T16:48:07;3.45;;;2.42;;
25637;SDS011;13496;51.040;13.680;2024-02-04T16:53:09;4.45;;;2.40;;
25637;SDS011;13496;51.040;13.680;2024-02-04T16:58:12;4.10;;;2.38;;
25637;SDS011;13496;51.040;13.680;2024-02-04T17:03:14;4.05;;;2.30;;
25637;SDS011;13496;51.040;13.680;2024-02-04T17:08:16;5.20;;;2.72;;
25637;SDS011;13496;51.040;13.680;2024-02-04T17:13:19;3.45;;;2.33;;
25637;SDS011;13496;51.040;13.680;2024-02-04T17:18:30;5.28;;;2.65;;
25637;SDS011;13496;51.040;13.680;2024-02-04T17:23:50;3.55;;;2.20;;
25637;SDS011;13496;51.040;13.680;2024-02-04T17:28:55;2.92;;;2.30;;
25637;SDS011;13496;51.040;13.680;2024-02-04T17:33:58;4.43;;;2.30;;
25637;SDS011;13496;51.040;13.680;2024-02-04T17:39:01;2.40;;;2.20;;
25637;SDS011;13496;51.040;13.680;2024-02-04T17:44:06;4.50;;;2.30;;
25637;SDS011;13496;51.040;13.680;2024-02-04T17:49:08;5.03;;;2.60;;
25637;SDS011;13496;51.040;13.680;2024-02-04T17:54:11;4.13;;;2.20;;
25637;SDS011;13496;51.040;13.680;2024-02-04T17:59:13;2.55;;;1.95;;
25637;SDS011;13496;51.040;13.680;2024-02-04T18:04:15;3.42;;;2.17;;
25637;SDS011;13496;51.040;13.680;2024-02-04T18:09:17;3.55;;;2.17;;
25637;SDS011;13496;51.040;13.680;2024-02-04T18:14:20;4.22;;;2.30;;
25637;SDS011;13496;51.040;13.680;2024-02-04T18:19:22;4.43;;;2.22;;
25637;SDS011;13496;51.040;13.680;2024-02-04T18:24:24;4.43;;;2.20;;
25637;SDS011;13496;51.040;13.680;2024-02-04T18:29:26;2.25;;;1.83;;
25637;SDS011;13496;51.040;13.680;2024-02-04T18:34:27;4.78;;;2.13;;
25637;SDS011;13496;51.040;13.680;2024-02-04T18:39:29;5.57;;;2.50;;
25637;SDS011;13496;51.040;13.680;2024-02-04T18:44:32;4.15;;;2.17;;
25637;SDS011;13496;51.040;13.680;2024-02-04T18:49:36;4.07;;;2.13;;
25637;SDS011;13496;51.040;13.680;2024-02-04T18:54:38;5.80;;;2.20;;
25637;SDS011;13496;51.040;13.680;2024-02-04T18:59:40;2.95;;;2.10;;
25637;SDS011;13496;51.040;13.680;2024-02-04T19:04:41;4.50;;;2.47;;
25637;SDS011;13496;51.040;13.680;2024-02-04T19:09:43;4.40;;;2.33;;
25637;SDS011;13496;51.040;13.680;2024-02-04T19:14:45;5.40;;;2.22;;
25637;SDS011;13496;51.040;13.680;2024-02-04T19:19:47;4.43;;;2.22;;
25637;SDS011;13496;51.040;13.680;2024-02-04T19:24:49;4.40;;;2.00;;
25637;SDS011;13496;51.040;13.680;2024-02-04T19:29:51;4.72;;;2.25;;
25637;SDS011;13496;51.040;13.680;2024-02-04T19:34:52;6.65;;;2.13;;
25637;SDS011;13496;51.040;13.680;2024-02-04T19:39:54;4.32;;;1.90;;
25637;SDS011;13496;51.040;13.680;2024-02-04T19:44:56;2.33;;;1.98;;
25637;SDS011;13496;51.040;13.680;2024-02-04T19:49:58;3.92;;;1.98;;
25637;SDS011;13496;51.040;13.680;2024-02-04T19:55:00;4.32;;;2.17;;
25637;SDS011;13496;51.040;13.680;2024-02-04T20:00:02;2.65;;;1.88;;
25637;SDS011;13496;51.040;13.680;2024-02-04T20:05:12;4.65;;;2.17;;
25637;SDS011;13496;51.040;13.680;2024-02-04T20:10:14;3.88;;;1.77;;
25637;SDS011;13496;51.040;13.680;2024-02-04T20:15:15;2.58;;;1.83;;
25637;SDS011;13496;51.040;13.680;2024-02-04T20:20:25;2.88;;;1.70;;
25637;SDS011;13496;51.040;13.680;2024-02-04T20:25:27;3.05;;;1.90;;
25637;SDS011;13496;51.040;13.680;2024-02-04T20:30:29;3.13;;;1.90;;
25637;SDS011;13496;51.040;13.680;2024-02-04T20:35:31;4.30;;;2.08;;
25637;SDS011;13496;51.040;13.680;2024-02-04T20:40:33;2.22;;;1.50;;
25637;SDS011;13496;51.040;13.680;2024-02-04T20:45:38;2.75;;;1.60;;
25637;SDS011;13496;51.040;13.680;2024-02-04T20:50:41;2.97;;;1.60;;
25637;SDS011;13496;51.040;13.680;2024-02-04T20:55:42;2.58;;;1.88;;
25637;SDS011;13496;51.040;13.680;2024-02-04T21:00:44;2.83;;;1.67;;
25637;SDS011;13496;51.040;13.680;2024-02-04T21:05:46;3.30;;;1.70;;
25637;SDS011;13496;51.040;13.680;2024-02-04T21:10:48;4.80;;;1.73;;
25637;SDS011;13496;51.040;13.680;2024-02-04T21:22:26;4.00;;;1.70;;
25637;SDS011;13496;51.040;13.680;2024-02-04T21:27:28;2.38;;;1.70;;
25637;SDS011;13496;51.040;13.680;2024-02-04T21:32:30;3.20;;;1.45;;
25637;SDS011;13496;51.040;13.680;2024-02-04T21:37:31;2.67;;;1.70;;
25637;SDS011;13496;51.040;13.680;2024-02-04T21:42:36;3.20;;;1.80;;
25637;SDS011;13496;51.040;13.680;2024-02-04T21:47:38;2.83;;;1.60;;
25637;SDS011;13496;51.040;13.680;2024-02-04T21:52:40;2.30;;;1.65;;
25637;SDS011;13496;51.040;13.680;2024-02-04T21:57:41;2.85;;;1.48;;
25637;SDS011;13496;51.040;13.680;2024-02-04T22:02:44;1.90;;;1.30;;
25637;SDS011;13496;51.040;13.680;2024-02-04T22:07:46;3.40;;;1.60;;
25637;SDS011;13496;51.040;13.680;2024-02-04T22:12:47;2.65;;;1.50;;
25637;SDS011;13496;51.040;13.680;2024-02-04T22:17:49;1.67;;;1.58;;
25637;SDS011;13496;51.040;13.680;2024-02-04T22:22:52;2.15;;;1.40;;
25637;SDS011;13496;51.040;13.680;2024-02-04T22:27:54;2.40;;;1.52;;
25637;SDS011;13496;51.040;13.680;2024-02-04T22:32:56;1.48;;;1.20;;
25637;SDS011;13496;51.040;13.680;2024-02-04T22:37:57;1.48;;;1.23;;
25637;SDS011;13496;51.040;13.680;2024-02-04T22:43:00;1.50;;;1.30;;
25637;SDS011;13496;51.040;13.680;2024-02-04T22:48:01;1.25;;;1.15;;
25637;SDS011;13496;51.040;13.680;2024-02-04T22:53:03;1.60;;;1.30;;
25637;SDS011;13496;51.040;13.680;2024-02-04T22:58:06;1.65;;;1.30;;
25637;SDS011;13496;51.040;13.680;2024-02-04T23:03:09;1.52;;;1.25;;
25637;SDS011;13496;51.040;13.680;2024-02-04T23:08:11;1.30;;;1.10;;
25637;SDS011;13496;51.040;13.680;2024-02-04T23:13:13;1.20;;;1.10;;
25637;SDS011;13496;51.040;13.680;2024-02-04T23:18:15;1.13;;;1.00;;
25637;SDS011;13496;51.040;13.680;2024-02-04T23:23:17;1.70;;;1.10;;
25637;SDS011;13496;51.040;13.680;2024-02-04T23:28:22;1.25;;;1.02;;
25637;SDS011;13496;51.040;13.680;2024-02-04T23:33:25;2.07;;;1.00;;
25637;SDS011;13496;51.040;13.680;2024-02-04T23:38:27;1.90;;;1.10;;
25637;SDS011;13496;51.040;13.680;2024-02-04T23:43:28;1.30;;;0.90;;
25637;SDS011;13496;51.040;13.680;2024-02-04T23:48:31;1.60;;;1.10;;
25637;SDS011;13496;51.040;13.680;2024-02-04T23:53:33;1.27;;;0.90;;
25637;SDS011;13496;51.040;13.680;2024-02-04T23:58:35;1.33;;;0.90;;
